aviador You're here:

KINF Decoded Metar

in
Report Time2018-06-17 21:15:00
UTC Time2018-06-17 21:35:51
Flight Rules vfr VFR
Wind050° at 06 kt
W.Decomp.*RWY 01: 4.6 kt HW 3.9 kt RCW
W.Rank050° ranks 4
Current wind is above 050° avg. (5.5)
Visibility9999 m
Phenomena:N/A
Clouds:N/A
Expected CloudBase > 4,800 ft AGL from Temp-Dew spread
CeilingNone
Temp34°C
Dew Point22°C (49% RH)
Heat Index38.1°C
QNH1019 hPa
Raw Report
METAR KINF 172115Z AUTO 05006KT 10SM CLR 34/22 A3008 RMK AO2 LTG DSNT
N AND E=

Extra information for KINF:More info

Social comments